createdAt,value
2018-11-23T00:00:22.780Z,80.20
2018-11-23T00:02:51.759Z,72.80
2018-11-23T00:05:20.207Z,82.83
2018-11-23T00:07:49.146Z,78.40
2018-11-23T00:10:18.483Z,75.33
2018-11-23T00:12:47.172Z,78.33
2018-11-23T00:15:16.724Z,77.00
2018-11-23T00:17:44.903Z,74.57
2018-11-23T00:20:15.496Z,70.80
2018-11-23T00:22:43.710Z,76.37
2018-11-23T00:25:13.884Z,67.83
2018-11-23T00:27:42.067Z,70.50
2018-11-23T00:30:13.844Z,73.03
2018-11-23T00:32:42.393Z,74.37
2018-11-23T00:35:13.300Z,80.33
2018-11-23T00:37:41.942Z,75.20
2018-11-23T00:40:12.137Z,75.63
2018-11-23T00:42:40.604Z,73.33
2018-11-23T00:45:10.390Z,66.33
2018-11-23T00:47:38.592Z,63.77
2018-11-23T00:50:09.301Z,76.73
2018-11-23T00:52:37.541Z,74.97
2018-11-23T00:55:07.200Z,74.33
2018-11-23T00:57:35.362Z,73.70
2018-11-23T01:00:03.728Z,79.00
2018-11-23T01:02:31.869Z,74.57
2018-11-23T01:05:00.040Z,75.03
2018-11-23T01:07:28.222Z,77.00
2018-11-23T01:09:56.393Z,73.10
2018-11-23T01:12:24.762Z,73.07
2018-11-23T01:14:53.232Z,74.63
2018-11-23T01:17:21.367Z,71.77
2018-11-23T01:19:49.516Z,80.77
2018-11-23T01:22:17.663Z,74.90
2018-11-23T01:24:46.228Z,75.27
2018-11-23T01:27:14.612Z,79.97
2018-11-23T01:29:42.785Z,75.83
2018-11-23T01:32:10.919Z,82.03
2018-11-23T01:34:39.096Z,75.83
2018-11-23T01:37:07.264Z,81.50
2018-11-23T01:39:35.416Z,76.53
2018-11-23T01:42:03.787Z,80.73
2018-11-23T01:44:36.168Z,69.20
2018-11-23T01:47:04.328Z,69.73
2018-11-23T01:49:32.471Z,67.27
2018-11-23T01:52:00.651Z,75.13
2018-11-23T01:54:28.843Z,70.53
2018-11-23T01:56:56.979Z,73.93
2018-11-23T01:59:25.559Z,67.80
2018-11-23T02:01:53.724Z,71.20
2018-11-23T02:04:21.894Z,64.40
2018-11-23T02:06:50.042Z,68.70
2018-11-23T02:09:18.200Z,66.20
2018-11-23T02:11:46.403Z,68.30
2018-11-23T02:14:14.565Z,66.23
2018-11-23T02:16:42.726Z,69.73
2018-11-23T02:19:10.903Z,66.30
2018-11-23T02:21:39.254Z,65.30
2018-11-23T02:24:07.412Z,64.90
2018-11-23T02:26:35.570Z,70.13
2018-11-23T02:29:03.735Z,63.87
2018-11-23T02:31:32.582Z,62.30
2018-11-23T02:34:00.780Z,68.67
2018-11-23T02:36:28.976Z,65.83
2018-11-23T02:38:57.172Z,62.43
2018-11-23T02:41:25.334Z,64.67
2018-11-23T02:43:53.476Z,70.50
2018-11-23T02:46:21.624Z,66.60
2018-11-23T02:48:49.765Z,64.10
2018-11-23T02:51:18.035Z,65.97
2018-11-23T02:53:46.628Z,63.13
2018-11-23T02:56:14.790Z,61.77
2018-11-23T02:58:42.983Z,68.27
2018-11-23T03:01:11.433Z,61.30
2018-11-23T03:03:39.903Z,69.87
2018-11-23T03:06:08.460Z,66.53
2018-11-23T03:08:36.632Z,70.97
2018-11-23T03:11:05.340Z,68.40
2018-11-23T03:13:33.491Z,65.70
2018-11-23T03:16:01.669Z,64.40
2018-11-23T03:18:29.864Z,65.37
2018-11-23T03:20:58.028Z,64.53
2018-11-23T03:23:26.162Z,65.87
2018-11-23T03:25:54.363Z,65.97
2018-11-23T03:28:22.723Z,58.37
2018-11-23T03:30:51.126Z,65.50
2018-11-23T03:33:19.307Z,70.43
2018-11-23T03:35:47.536Z,69.70
2018-11-23T03:38:15.661Z,61.33
2018-11-23T03:40:44.251Z,63.77
2018-11-23T03:43:12.379Z,69.60
2018-11-23T03:45:40.531Z,59.17
2018-11-23T03:48:08.654Z,66.97
2018-11-23T03:50:36.797Z,66.50
2018-11-23T03:53:04.937Z,64.33
2018-11-23T03:55:33.068Z,66.90
2018-11-23T03:58:01.192Z,70.80
2018-11-23T04:00:29.327Z,67.80
2018-11-23T04:02:57.469Z,68.97
2018-11-23T04:05:25.979Z,63.90
2018-11-23T04:07:54.096Z,69.80
2018-11-23T04:10:22.254Z,68.77
2018-11-23T04:12:50.375Z,69.00
2018-11-23T04:15:18.512Z,69.43
2018-11-23T04:17:46.728Z,61.13
2018-11-23T04:20:15.952Z,67.33
2018-11-23T04:22:44.172Z,64.83
2018-11-23T04:25:12.993Z,72.07
2018-11-23T04:27:41.474Z,71.23
2018-11-23T04:30:11.275Z,66.67
2018-11-23T04:32:39.468Z,81.20
2018-11-23T04:35:09.566Z,70.63
2018-11-23T04:37:37.703Z,69.30
2018-11-23T04:40:07.288Z,64.83
2018-11-23T04:42:35.872Z,71.50
2018-11-23T04:45:04.004Z,62.50
2018-11-23T04:47:32.160Z,66.67
2018-11-23T04:50:01.349Z,68.67
2018-11-23T04:52:28.775Z,66.40
2018-11-23T04:54:56.900Z,71.57
2018-11-23T04:57:25.036Z,63.90
2018-11-23T04:59:53.318Z,69.57
2018-11-23T05:02:21.770Z,67.53
2018-11-23T05:04:50.079Z,68.80
2018-11-23T05:07:18.703Z,71.23
2018-11-23T05:09:46.904Z,71.10
2018-11-23T05:12:15.556Z,65.07
2018-11-23T05:14:43.684Z,66.13
2018-11-23T05:17:11.804Z,67.13
2018-11-23T05:19:39.946Z,64.17
2018-11-23T05:22:08.453Z,70.17
2018-11-23T05:24:36.579Z,66.60
2018-11-23T05:27:05.135Z,64.53
2018-11-23T05:29:33.273Z,65.43
2018-11-23T05:32:01.469Z,73.33
2018-11-23T05:34:29.589Z,66.50
2018-11-23T05:36:58.017Z,63.30
2018-11-23T05:39:26.164Z,62.63
2018-11-23T05:41:54.654Z,58.73
2018-11-23T05:44:22.780Z,65.00
2018-11-23T05:46:50.909Z,71.37
2018-11-23T05:49:19.035Z,64.40
2018-11-23T05:51:47.191Z,62.70
2018-11-23T05:54:15.364Z,62.33
2018-11-23T05:56:44.480Z,59.40
2018-11-23T05:59:12.691Z,64.23
2018-11-23T06:01:40.855Z,68.87
2018-11-23T06:04:09.418Z,60.90
2018-11-23T06:06:42.239Z,58.70
2018-11-23T06:09:06.923Z,66.40
2018-11-23T06:11:35.639Z,67.87
2018-11-23T06:14:03.791Z,63.33
2018-11-23T06:16:32.200Z,63.43
2018-11-23T06:19:00.623Z,66.73
2018-11-23T06:21:28.763Z,60.27
2018-11-23T06:23:56.904Z,62.57
2018-11-23T06:26:26.595Z,65.37
2018-11-23T06:28:55.232Z,61.70
2018-11-23T06:31:23.396Z,61.97
2018-11-23T06:33:51.555Z,64.23
2018-11-23T06:36:19.681Z,60.27
2018-11-23T06:38:48.264Z,60.37
2018-11-23T06:41:16.419Z,59.83
2018-11-23T06:43:44.918Z,63.03
2018-11-23T06:46:13.493Z,64.93
2018-11-23T06:48:41.821Z,63.03
2018-11-23T06:51:10.091Z,61.93
2018-11-23T06:53:38.387Z,65.53
2018-11-23T06:56:06.744Z,62.70
2018-11-23T06:58:35.046Z,63.23
2018-11-23T07:01:03.323Z,68.23
2018-11-23T07:03:31.665Z,56.97
2018-11-23T07:06:00.235Z,65.10
2018-11-23T07:08:28.554Z,62.53
2018-11-23T07:10:59.605Z,62.20
2018-11-23T07:13:28.843Z,67.63
2018-11-23T07:15:57.220Z,62.70
2018-11-23T07:18:25.543Z,60.43
2018-11-23T07:20:53.921Z,58.83
2018-11-23T07:23:22.172Z,58.53
2018-11-23T07:25:50.520Z,56.60
2018-11-23T07:28:18.861Z,63.33
2018-11-23T07:30:47.155Z,61.37
2018-11-23T07:33:15.556Z,60.43
2018-11-23T07:35:43.865Z,61.80
2018-11-23T07:38:12.183Z,58.07
2018-11-23T07:40:52.920Z,66.30
2018-11-23T07:43:21.258Z,59.63
2018-11-23T07:45:49.721Z,62.53
2018-11-23T07:48:18.075Z,61.17
2018-11-23T07:50:46.588Z,56.17
2018-11-23T07:53:15.193Z,53.87
2018-11-23T07:55:43.665Z,57.27
2018-11-23T07:58:12.032Z,54.47
2018-11-23T08:00:40.380Z,56.57
2018-11-23T08:03:08.690Z,52.03
2018-11-23T08:05:36.996Z,50.93
2018-11-23T08:08:05.748Z,52.53
2018-11-23T08:10:33.407Z,55.37
2018-11-23T08:13:01.756Z,49.23
2018-11-23T08:15:30.068Z,51.67
2018-11-23T08:17:58.361Z,54.30
2018-11-23T08:20:26.908Z,49.33
2018-11-23T08:22:55.370Z,52.43
2018-11-23T08:25:24.672Z,48.80
2018-11-23T08:27:54.143Z,44.57
2018-11-23T08:30:23.789Z,49.00
2018-11-23T08:32:52.139Z,43.00
2018-11-23T08:35:20.461Z,43.57
2018-11-23T08:37:48.770Z,46.70
2018-11-23T08:40:20.077Z,43.77
2018-11-23T08:42:49.004Z,44.37
2018-11-23T08:45:18.673Z,47.03
2018-11-23T08:47:46.852Z,42.60
2018-11-23T08:50:17.372Z,43.47
2018-11-23T08:52:46.215Z,44.77
2018-11-23T08:55:15.148Z,46.07
2018-11-23T08:57:43.572Z,45.40
2018-11-23T09:00:17.344Z,42.47
2018-11-23T09:02:47.143Z,41.20
2018-11-23T09:05:16.168Z,39.60
2018-11-23T09:07:45.214Z,48.07
2018-11-23T09:10:15.858Z,42.27
2018-11-23T09:12:45.704Z,43.43
2018-11-23T09:15:14.691Z,40.73
2018-11-23T09:17:43.823Z,39.47
2018-11-23T09:20:12.751Z,42.00
2018-11-23T09:22:40.929Z,39.10
2018-11-23T09:25:11.746Z,38.53
2018-11-23T09:27:39.916Z,37.70
2018-11-23T09:30:14.848Z,44.53
2018-11-23T09:32:43.109Z,38.23
2018-11-23T09:35:11.651Z,36.40
2018-11-23T09:37:40.839Z,36.73
2018-11-23T09:40:12.662Z,39.37
2018-11-23T09:42:41.023Z,37.17
2018-11-23T09:45:11.352Z,35.10
2018-11-23T09:47:39.480Z,38.83
2018-11-23T09:50:10.058Z,36.63
2018-11-23T09:52:38.194Z,35.80
2018-11-23T09:55:06.821Z,35.77
2018-11-23T09:57:34.961Z,38.27
2018-11-23T10:00:03.120Z,33.30
2018-11-23T10:02:31.245Z,32.43
2018-11-23T10:04:59.637Z,35.43
2018-11-23T10:07:27.798Z,32.40
2018-11-23T10:09:55.932Z,33.73
2018-11-23T10:12:24.063Z,31.93
2018-11-23T10:14:52.327Z,32.00
2018-11-23T10:17:20.483Z,30.93
2018-11-23T10:19:48.640Z,32.30
2018-11-23T10:22:16.784Z,31.97
2018-11-23T10:24:45.225Z,30.83
2018-11-23T10:27:13.624Z,29.23
2018-11-23T10:29:41.788Z,27.47
2018-11-23T10:32:09.936Z,29.03
2018-11-23T10:34:38.084Z,26.23
2018-11-23T10:37:06.572Z,26.23
2018-11-23T10:39:34.688Z,29.40
2018-11-23T10:42:02.824Z,30.03
2018-11-23T10:44:30.990Z,30.37
2018-11-23T10:46:59.143Z,29.63
2018-11-23T10:49:27.278Z,29.00
2018-11-23T10:51:55.431Z,25.97
2018-11-23T10:54:23.947Z,27.43
2018-11-23T10:56:52.086Z,28.77
2018-11-23T10:59:20.435Z,28.23
2018-11-23T11:01:53.917Z,27.17
2018-11-23T11:04:27.487Z,30.30
2018-11-23T11:06:56.402Z,31.13
2018-11-23T11:09:24.548Z,29.13
2018-11-23T11:11:52.706Z,29.07
2018-11-23T11:14:20.817Z,27.47
2018-11-23T11:16:49.257Z,23.37
2018-11-23T11:19:17.391Z,25.13
2018-11-23T11:21:45.545Z,25.07
2018-11-23T11:24:13.787Z,28.80
2018-11-23T11:26:41.936Z,30.33
2018-11-23T11:29:10.039Z,30.23
2018-11-23T11:31:38.172Z,28.83
2018-11-23T11:34:06.552Z,31.27
2018-11-23T11:36:34.668Z,27.50
2018-11-23T11:39:02.888Z,27.87
2018-11-23T11:41:31.045Z,25.33
2018-11-23T11:43:59.190Z,28.50
2018-11-23T11:46:27.318Z,28.03
2018-11-23T11:48:55.464Z,26.57
2018-11-23T11:51:23.602Z,25.80
2018-11-23T11:53:51.771Z,28.47
2018-11-23T11:56:19.902Z,26.20
2018-11-23T11:58:48.068Z,28.10
2018-11-23T12:01:16.225Z,26.80
2018-11-23T12:03:44.705Z,27.03
2018-11-23T12:06:12.878Z,28.23
2018-11-23T12:08:41.063Z,25.93
2018-11-23T12:11:09.570Z,26.87
2018-11-23T12:13:38.286Z,26.03
2018-11-23T12:16:06.414Z,26.97
2018-11-23T12:18:34.556Z,28.37
2018-11-23T12:21:02.736Z,29.27
2018-11-23T12:23:30.881Z,26.83
2018-11-23T12:25:59.023Z,27.37
2018-11-23T12:28:27.172Z,27.70
2018-11-23T12:30:55.307Z,28.97
2018-11-23T12:33:23.474Z,28.50
2018-11-23T12:35:52.108Z,30.87
2018-11-23T12:38:20.566Z,38.07
2018-11-23T12:40:48.916Z,28.07
2018-11-23T12:43:17.232Z,28.27
2018-11-23T12:45:45.524Z,28.97
2018-11-23T12:48:13.917Z,27.70
2018-11-23T12:50:42.284Z,27.37
2018-11-23T12:53:10.708Z,29.60
2018-11-23T12:55:39.048Z,26.63
2018-11-23T12:58:07.373Z,27.87
2018-11-23T13:00:35.773Z,28.20
2018-11-23T13:03:05.133Z,25.53
2018-11-23T13:05:34.440Z,28.07
2018-11-23T13:08:04.281Z,27.90
2018-11-23T13:10:32.947Z,28.10
2018-11-23T13:13:01.953Z,27.30
2018-11-23T13:15:30.321Z,27.37
2018-11-23T13:17:59.255Z,31.37
2018-11-23T13:20:27.672Z,30.03
2018-11-23T13:22:56.084Z,29.13
2018-11-23T13:25:26.007Z,28.03
2018-11-23T13:27:54.717Z,28.87
2018-11-23T13:30:24.623Z,29.60
2018-11-23T13:32:53.120Z,31.63
2018-11-23T13:35:21.501Z,33.53
2018-11-23T13:37:49.944Z,30.03
2018-11-23T13:40:19.541Z,29.43
2018-11-23T13:42:48.321Z,31.63
2018-11-23T13:45:18.143Z,30.90
2018-11-23T13:47:46.455Z,30.33
2018-11-23T13:50:17.248Z,31.53
2018-11-23T13:52:46.404Z,34.20
2018-11-23T13:55:14.769Z,30.67
2018-11-23T13:57:43.176Z,33.33
2018-11-23T14:00:14.945Z,29.87
2018-11-23T14:02:43.732Z,31.57
2018-11-23T14:05:14.060Z,32.10
2018-11-23T14:07:43.199Z,28.97
2018-11-23T14:10:13.473Z,30.07
2018-11-23T14:12:42.247Z,32.17
2018-11-23T14:15:16.894Z,33.77
2018-11-23T14:17:46.180Z,30.17
2018-11-23T14:20:15.380Z,29.47
2018-11-23T14:22:43.764Z,31.27
2018-11-23T14:25:14.579Z,29.30
2018-11-23T14:27:43.155Z,33.70
2018-11-23T14:30:14.029Z,33.90
2018-11-23T14:32:42.695Z,32.00
2018-11-23T14:35:16.612Z,29.33
2018-11-23T14:37:45.390Z,31.20
2018-11-23T14:40:13.971Z,30.27
2018-11-23T14:42:43.980Z,31.57
2018-11-23T14:45:21.083Z,29.40
2018-11-23T14:47:49.954Z,34.27
2018-11-23T14:50:19.991Z,31.40
2018-11-23T14:52:49.476Z,32.17
2018-11-23T14:55:19.652Z,31.63
2018-11-23T14:57:49.335Z,37.73
2018-11-23T15:00:26.309Z,32.07
2018-11-23T15:02:58.219Z,31.07
2018-11-23T15:05:26.405Z,34.20
2018-11-23T15:07:54.876Z,32.77
2018-11-23T15:10:24.492Z,33.03
2018-11-23T15:12:53.939Z,30.60
2018-11-23T15:15:26.787Z,30.63
2018-11-23T15:17:55.502Z,33.70
2018-11-23T15:20:27.146Z,31.53
2018-11-23T15:22:57.089Z,27.83
2018-11-23T15:25:25.679Z,31.13
2018-11-23T15:27:54.204Z,32.47
2018-11-23T15:30:24.928Z,35.57
2018-11-23T15:32:53.129Z,34.87
2018-11-23T15:35:21.356Z,31.53
2018-11-23T15:37:50.036Z,34.80
2018-11-23T15:40:20.883Z,35.93
2018-11-23T15:42:50.010Z,32.50
2018-11-23T15:45:20.428Z,36.17
2018-11-23T15:47:48.596Z,36.23
2018-11-23T15:50:19.220Z,38.43
2018-11-23T15:52:47.696Z,32.60
2018-11-23T15:55:19.356Z,37.43
2018-11-23T15:57:48.575Z,32.80
2018-11-23T16:00:20.510Z,32.97
2018-11-23T16:02:49.096Z,36.50
2018-11-23T16:05:17.518Z,40.20
2018-11-23T16:07:46.004Z,36.23
2018-11-23T16:10:18.403Z,36.80
2018-11-23T16:12:48.846Z,39.97
2018-11-23T16:15:17.873Z,34.60
2018-11-23T16:17:46.211Z,33.53
2018-11-23T16:20:15.810Z,35.63
2018-11-23T16:22:45.734Z,36.97
2018-11-23T16:25:13.982Z,37.67
2018-11-23T16:27:43.153Z,39.30
2018-11-23T16:30:13.850Z,31.73
2018-11-23T16:32:45.393Z,34.60
2018-11-23T16:35:14.901Z,36.70
2018-11-23T16:37:43.061Z,38.57
2018-11-23T16:40:13.169Z,38.03
2018-11-23T16:42:41.711Z,39.10
2018-11-23T16:45:16.443Z,40.53
2018-11-23T16:47:45.584Z,43.30
2018-11-23T16:50:14.050Z,43.87
2018-11-23T16:52:43.600Z,41.73
2018-11-23T16:55:12.844Z,43.20
2018-11-23T16:57:42.268Z,46.73
2018-11-23T17:00:19.539Z,43.27
2018-11-23T17:02:48.154Z,45.03
2018-11-23T17:05:18.368Z,51.83
2018-11-23T17:07:47.440Z,46.03
2018-11-23T17:10:16.658Z,48.10
2018-11-23T17:12:45.213Z,47.57
2018-11-23T17:15:15.016Z,45.23
2018-11-23T17:17:43.407Z,51.80
2018-11-23T17:20:13.623Z,49.67
2018-11-23T17:22:42.826Z,44.13
2018-11-23T17:25:12.771Z,48.53
2018-11-23T17:27:41.135Z,48.67
2018-11-23T17:30:11.232Z,48.33
2018-11-23T17:32:39.707Z,46.43
2018-11-23T17:35:08.594Z,48.20
2018-11-23T17:37:37.912Z,45.20
2018-11-23T17:40:07.858Z,47.03
2018-11-23T17:42:36.623Z,44.83
2018-11-23T17:45:08.257Z,46.17
2018-11-23T17:47:36.654Z,45.90
2018-11-23T17:50:07.196Z,49.20
2018-11-23T17:52:35.553Z,54.13
2018-11-23T17:58:37.302Z,55.83
2018-11-23T18:01:06.387Z,53.80
2018-11-23T18:03:34.763Z,53.43
2018-11-23T18:06:03.858Z,48.93
2018-11-23T18:08:32.296Z,47.67
2018-11-23T18:10:59.876Z,48.10
2018-11-23T18:13:28.317Z,45.70
2018-11-23T18:15:56.703Z,50.63
2018-11-23T18:18:25.393Z,51.67
2018-11-23T18:20:54.096Z,45.93
2018-11-23T18:23:22.424Z,47.57
2018-11-23T18:25:50.834Z,48.73
2018-11-23T18:28:19.132Z,46.23
2018-11-23T18:30:47.535Z,46.70
2018-11-23T18:33:15.841Z,48.93
2018-11-23T18:35:44.072Z,54.47
2018-11-23T18:38:12.443Z,51.03
2018-11-23T18:40:40.778Z,57.97
2018-11-23T18:43:09.092Z,54.23
2018-11-23T18:45:37.364Z,51.43
2018-11-23T18:48:05.760Z,49.43
2018-11-23T18:50:34.591Z,52.00
2018-11-23T18:53:03.080Z,55.93
2018-11-23T18:55:31.314Z,51.07
2018-11-23T18:57:59.572Z,57.50
2018-11-23T19:00:27.853Z,52.53
2018-11-23T19:02:56.129Z,52.50
2018-11-23T19:05:25.732Z,50.40
2018-11-23T19:07:54.003Z,50.80
2018-11-23T19:10:22.287Z,50.27
2018-11-23T19:12:53.645Z,53.57
2018-11-23T19:15:25.545Z,55.13
2018-11-23T19:17:50.168Z,53.67
2018-11-23T19:20:19.647Z,51.57
2018-11-23T19:22:49.227Z,56.87
2018-11-23T19:25:17.566Z,56.53
2018-11-23T19:27:45.833Z,58.23
2018-11-23T19:30:16.223Z,57.37
2018-11-23T19:32:44.835Z,59.20
2018-11-23T19:35:13.127Z,56.43
2018-11-23T19:37:41.401Z,55.70
2018-11-23T19:40:10.887Z,58.63
2018-11-23T19:42:39.223Z,55.00
2018-11-23T19:45:11.998Z,52.43
2018-11-23T19:47:40.312Z,50.67
2018-11-23T19:50:13.046Z,51.00
2018-11-23T19:52:41.471Z,54.43
2018-11-23T19:55:11.175Z,54.63
2018-11-23T19:57:39.806Z,50.67
2018-11-23T20:00:11.389Z,52.43
2018-11-23T20:02:39.947Z,57.90
2018-11-23T20:05:22.863Z,56.30
2018-11-23T20:07:54.139Z,59.80
2018-11-23T20:10:23.262Z,64.43
2018-11-23T20:12:53.262Z,70.40
2018-11-23T20:15:21.550Z,69.23
2018-11-23T20:17:50.425Z,73.90
2018-11-23T20:20:18.801Z,67.93
2018-11-23T20:22:48.998Z,78.23
2018-11-23T20:25:18.420Z,69.97
2018-11-23T20:27:48.827Z,73.97
2018-11-23T20:30:18.025Z,67.73
2018-11-23T20:32:46.432Z,72.20
2018-11-23T20:35:18.165Z,72.73
2018-11-23T20:37:46.679Z,70.07
2018-11-23T20:40:17.979Z,70.73
2018-11-23T20:42:46.244Z,62.87
2018-11-23T20:45:14.443Z,64.53
2018-11-23T20:47:42.659Z,68.73
2018-11-23T20:50:12.207Z,67.53
2018-11-23T20:52:40.460Z,68.83
2018-11-23T20:55:10.086Z,74.90
2018-11-23T20:57:40.111Z,60.73
2018-11-23T21:00:15.879Z,74.63
2018-11-23T21:02:45.222Z,71.13
2018-11-23T21:05:14.450Z,76.20
2018-11-23T21:07:42.603Z,79.17
2018-11-23T21:10:20.141Z,85.60
2018-11-23T21:12:43.038Z,86.70
2018-11-23T21:15:14.585Z,88.43
2018-11-23T21:17:42.976Z,93.57
2018-11-23T21:20:11.296Z,101.60
2018-11-23T21:22:39.568Z,124.33
2018-11-23T21:25:09.060Z,120.63
2018-11-23T21:27:37.368Z,147.33
2018-11-23T21:30:12.329Z,102.70
2018-11-23T21:32:40.455Z,128.30
2018-11-23T21:35:09.400Z,139.13
2018-11-23T21:37:37.549Z,155.77
2018-11-23T21:40:07.949Z,207.13
2018-11-23T21:42:36.324Z,140.93
2018-11-23T21:45:05.264Z,152.97
2018-11-23T21:47:33.692Z,195.43
2018-11-23T21:50:02.322Z,178.57
2018-11-23T21:52:30.701Z,175.73
2018-11-23T21:54:58.824Z,151.90
2018-11-23T21:57:27.398Z,203.80
2018-11-23T21:59:55.511Z,218.43
2018-11-23T22:02:23.999Z,241.60
2018-11-23T22:04:52.136Z,165.67
2018-11-23T22:07:20.311Z,204.47
2018-11-23T22:09:48.441Z,216.67
2018-11-23T22:12:16.582Z,214.83
2018-11-23T22:14:45.267Z,191.43
2018-11-23T22:17:13.420Z,198.93
2018-11-23T22:19:41.540Z,225.00
2018-11-23T22:22:09.691Z,183.23
2018-11-23T22:24:37.873Z,156.70
2018-11-23T22:27:06.056Z,174.50
2018-11-23T22:29:34.209Z,177.73
2018-11-23T22:32:02.337Z,155.93
2018-11-23T22:34:30.512Z,218.67
2018-11-23T22:36:58.667Z,267.90
2018-11-23T22:39:26.806Z,212.67
2018-11-23T22:41:54.948Z,194.43
2018-11-23T22:44:23.433Z,198.30
2018-11-23T22:46:51.591Z,218.17
2018-11-23T22:49:19.715Z,190.10
2018-11-23T22:51:47.863Z,167.17
2018-11-23T22:54:16.013Z,247.43
2018-11-23T22:56:44.167Z,199.57
2018-11-23T22:59:12.305Z,220.60
2018-11-23T23:01:40.452Z,210.40
2018-11-23T23:04:08.580Z,212.57
2018-11-23T23:06:36.739Z,227.17
2018-11-23T23:09:08.226Z,181.47
2018-11-23T23:11:36.723Z,253.47
2018-11-23T23:14:05.188Z,185.20
2018-11-23T23:16:33.332Z,175.10
2018-11-23T23:19:01.795Z,218.03
2018-11-23T23:21:30.032Z,236.33
2018-11-23T23:23:58.307Z,223.13
2018-11-23T23:26:26.779Z,178.60
2018-11-23T23:28:54.922Z,175.53
2018-11-23T23:31:23.043Z,177.83
2018-11-23T23:33:51.186Z,286.27
2018-11-23T23:36:19.324Z,177.80
2018-11-23T23:38:47.460Z,245.40
2018-11-23T23:41:15.587Z,204.40
2018-11-23T23:43:44.088Z,218.77
2018-11-23T23:46:12.222Z,197.50
2018-11-23T23:48:40.375Z,193.57
2018-11-23T23:51:08.520Z,136.83
2018-11-23T23:53:37.012Z,133.07
2018-11-23T23:56:05.973Z,107.00
2018-11-23T23:58:34.108Z,127.73
